Time;durP1;ratioP1;P1;durP2;ratioP2;P2;SDS_P1;SDS_P2;PMS_P1;PMS_P2;Temp;Humidity;BMP_temperature;BMP_pressure;BME280_temperature;BME280_humidity;BME280_pressure;Samples;Min_cycle;Max_cycle;Signal;HPM_P1;HPM_P2
2023/05/10 00:01:02;;;;;;;7.18;4.30;;;14.40;99.90;;;;;;5056877;28;20075;-46
2023/05/10 00:03:28;;;;;;;5.72;3.25;;;14.40;99.90;;;;;;5056563;28;20426;-46
2023/05/10 00:05:53;;;;;;;6.13;3.20;;;14.30;99.90;;;;;;5056663;28;20041;-46
2023/05/10 00:08:19;;;;;;;6.43;3.85;;;14.30;99.90;;;;;;5056690;28;20041;-46
2023/05/10 00:10:45;;;;;;;6.47;3.60;;;14.20;99.90;;;;;;5055534;28;20048;-46
2023/05/10 00:13:10;;;;;;;6.35;3.20;;;14.20;99.90;;;;;;5056620;28;20096;-46
2023/05/10 00:15:36;;;;;;;6.00;2.92;;;14.10;99.90;;;;;;5056478;28;20127;-46
2023/05/10 00:18:02;;;;;;;7.20;3.47;;;14.10;99.90;;;;;;5056589;28;20124;-47
2023/05/10 00:20:28;;;;;;;5.97;3.33;;;14.10;99.90;;;;;;5056323;28;20132;-46
2023/05/10 00:22:53;;;;;;;6.07;3.28;;;14.00;99.90;;;;;;5056162;28;20043;-46
2023/05/10 00:25:21;;;;;;;6.18;3.67;;;14.00;99.90;;;;;;5056350;28;20396;-46
2023/05/10 00:27:47;;;;;;;5.15;2.58;;;13.90;99.90;;;;;;5056055;28;20508;-46
2023/05/10 00:30:13;;;;;;;5.88;2.97;;;13.90;99.90;;;;;;5056322;28;20114;-46
2023/05/10 00:32:38;;;;;;;6.40;3.22;;;13.90;99.90;;;;;;5055038;28;20040;-46
2023/05/10 00:35:04;;;;;;;6.40;2.87;;;13.80;99.90;;;;;;5055946;28;20080;-46
2023/05/10 00:37:30;;;;;;;5.82;2.92;;;13.80;99.90;;;;;;5055911;28;20280;-46
2023/05/10 00:39:56;;;;;;;5.20;2.53;;;13.80;99.90;;;;;;5056318;28;20045;-46
2023/05/10 00:42:22;;;;;;;5.27;2.53;;;13.80;99.90;;;;;;5056060;28;20284;-46
2023/05/10 00:44:47;;;;;;;5.88;2.85;;;13.80;99.90;;;;;;5055120;28;20366;-46
2023/05/10 00:47:13;;;;;;;5.50;3.00;;;13.70;99.90;;;;;;5055854;28;20051;-46
2023/05/10 00:49:40;;;;;;;5.53;2.60;;;13.70;99.90;;;;;;5055828;28;20419;-47
2023/05/10 00:52:06;;;;;;;5.90;3.15;;;13.70;99.90;;;;;;5055772;28;20037;-46
2023/05/10 00:54:32;;;;;;;5.40;2.55;;;13.70;99.90;;;;;;5055990;28;20090;-46
2023/05/10 00:56:58;;;;;;;5.75;2.63;;;13.60;99.90;;;;;;5055945;28;20049;-46
2023/05/10 00:59:24;;;;;;;4.72;2.15;;;13.60;99.90;;;;;;5055631;28;20049;-48
2023/05/10 01:01:51;;;;;;;6.57;2.67;;;13.60;99.90;;;;;;5055502;28;20048;-46
2023/05/10 01:04:17;;;;;;;5.18;2.40;;;13.60;99.90;;;;;;5055671;28;20048;-46
2023/05/10 01:06:43;;;;;;;5.63;2.65;;;13.60;99.90;;;;;;5055336;28;20427;-46
2023/05/10 01:09:10;;;;;;;4.80;2.25;;;13.60;99.90;;;;;;5055565;28;20041;-46
2023/05/10 01:11:37;;;;;;;4.80;2.13;;;13.60;99.90;;;;;;5055473;28;20136;-47
2023/05/10 01:14:04;;;;;;;4.93;2.45;;;13.60;99.90;;;;;;5055357;28;20131;-46
2023/05/10 01:16:35;;;;;;;4.43;2.35;;;13.50;99.90;;;;;;5055422;28;20090;-47
2023/05/10 01:19:01;;;;;;;4.93;2.40;;;13.50;99.90;;;;;;5054337;28;20045;-47
2023/05/10 01:21:49;;;;;;;6.15;3.10;;;13.50;99.90;;;;;;5055602;28;20036;-46
2023/05/10 01:24:52;;;;;;;5.75;2.85;;;13.50;99.90;;;;;;5055407;28;20128;-46
2023/05/10 01:27:25;;;;;;;5.30;2.60;;;13.60;99.90;;;;;;5055196;28;20052;-46
2023/05/10 01:30:08;;;;;;;6.13;2.70;;;13.60;99.90;;;;;;5055189;28;20059;-47
2023/05/10 01:32:55;;;;;;;4.88;2.40;;;13.50;99.90;;;;;;5055260;28;20114;-46
2023/05/10 01:35:37;;;;;;;5.97;2.70;;;13.60;99.90;;;;;;5055081;28;20377;-47
2023/05/10 01:38:21;;;;;;;5.80;2.80;;;13.60;99.90;;;;;;5053552;28;20515;-46
2023/05/10 01:40:47;;;;;;;5.25;2.60;;;13.60;99.90;;;;;;5054486;28;20051;-46
2023/05/10 01:43:21;;;;;;;6.25;3.28;;;13.60;99.90;;;;;;5054915;28;20083;-46
2023/05/10 01:45:55;;;;;;;5.25;2.60;;;13.60;99.90;;;;;;5054012;28;20057;-46
2023/05/10 01:48:23;;;;;;;5.40;2.38;;;13.60;99.90;;;;;;5054504;28;20512;-46
2023/05/10 01:50:51;;;;;;;4.88;2.45;;;13.50;99.90;;;;;;5054781;28;20045;-46
2023/05/10 01:53:20;;;;;;;6.00;3.00;;;13.50;99.90;;;;;;5054461;28;20492;-46
2023/05/10 01:55:52;;;;;;;5.65;2.60;;;13.50;99.90;;;;;;5054570;28;20044;-46
2023/05/10 01:58:23;;;;;;;5.95;3.00;;;13.50;99.90;;;;;;5054590;28;20094;-46
2023/05/10 02:00:51;;;;;;;5.65;2.78;;;13.50;99.90;;;;;;5054393;28;20083;-46
2023/05/10 02:03:20;;;;;;;5.97;2.95;;;13.50;99.90;;;;;;5054568;28;20086;-46
2023/05/10 02:05:49;;;;;;;6.13;2.60;;;13.50;99.90;;;;;;5054386;28;20113;-46
2023/05/10 02:08:17;;;;;;;5.95;2.72;;;13.50;99.90;;;;;;5054397;28;20049;-46
2023/05/10 02:10:46;;;;;;;5.82;2.70;;;13.50;99.90;;;;;;5054134;28;20412;-47
2023/05/10 02:13:13;;;;;;;5.97;2.72;;;13.50;99.90;;;;;;5054078;28;20048;-46
2023/05/10 02:15:41;;;;;;;5.95;2.60;;;13.40;99.90;;;;;;5053200;28;20056;-46
2023/05/10 02:18:10;;;;;;;6.22;2.90;;;13.40;99.90;;;;;;5054199;28;20131;-46
2023/05/10 02:20:37;;;;;;;5.75;2.95;;;13.40;99.90;;;;;;5052945;28;20175;-46
2023/05/10 02:23:04;;;;;;;5.97;2.70;;;13.40;99.90;;;;;;5054063;28;20052;-46
2023/05/10 02:25:31;;;;;;;5.15;2.40;;;13.40;99.90;;;;;;5053940;28;20055;-46
2023/05/10 02:28:01;;;;;;;6.43;3.38;;;13.40;99.90;;;;;;5053844;28;20045;-46
2023/05/10 02:30:28;;;;;;;5.32;2.65;;;13.30;99.90;;;;;;5054082;28;20052;-46
2023/05/10 02:32:55;;;;;;;5.78;2.97;;;13.30;99.90;;;;;;5053941;28;20084;-46
2023/05/10 02:35:22;;;;;;;4.45;2.70;;;13.30;99.90;;;;;;5053895;28;20052;-46
2023/05/10 02:37:50;;;;;;;5.68;2.75;;;13.30;99.90;;;;;;5053899;28;20083;-46
2023/05/10 02:40:17;;;;;;;5.63;2.80;;;13.30;99.90;;;;;;5053674;28;20051;-46
2023/05/10 02:42:47;;;;;;;5.40;2.83;;;13.20;99.90;;;;;;5053851;28;20041;-46
2023/05/10 02:45:15;;;;;;;5.13;2.83;;;13.20;99.90;;;;;;5053988;28;20099;-46
2023/05/10 02:47:41;;;;;;;6.35;3.20;;;13.20;99.90;;;;;;5053754;28;20045;-46
2023/05/10 02:50:07;;;;;;;5.30;2.75;;;13.20;99.90;;;;;;5053435;28;20045;-46
2023/05/10 02:52:44;;;;;;;5.90;2.67;;;13.20;99.90;;;;;;5053083;28;20041;-46
2023/05/10 02:55:13;;;;;;;5.28;2.92;;;13.20;99.90;;;;;;5053613;28;20057;-46
2023/05/10 02:58:01;;;;;;;6.28;3.08;;;13.20;99.90;;;;;;5054104;28;20459;-46
2023/05/10 03:00:28;;;;;;;6.07;2.70;;;13.20;99.90;;;;;;5053245;28;20513;-46
2023/05/10 03:02:54;;;;;;;5.80;3.00;;;13.20;99.90;;;;;;5052692;28;20459;-47
2023/05/10 03:05:20;;;;;;;6.35;3.03;;;13.20;99.90;;;;;;5053338;28;20503;-46
2023/05/10 03:07:47;;;;;;;6.80;3.55;;;13.20;99.90;;;;;;5053563;28;20434;-46
2023/05/10 03:10:13;;;;;;;6.35;3.30;;;13.20;99.90;;;;;;5053743;28;20114;-46
2023/05/10 03:13:00;;;;;;;7.43;3.38;;;13.20;99.90;;;;;;5053844;28;20057;-47
2023/05/10 03:15:40;;;;;;;8.07;3.45;;;13.20;99.90;;;;;;5053414;28;20507;-46
2023/05/10 03:18:50;;;;;;;8.07;3.78;;;13.20;99.90;;;;;;5053661;28;20099;-47
2023/05/10 03:21:18;;;;;;;7.63;3.50;;;13.20;99.90;;;;;;5047558;28;20065;-46
2023/05/10 03:23:51;;;;;;;7.15;3.40;;;13.20;99.90;;;;;;5053288;28;20052;-46
2023/05/10 03:26:37;;;;;;;8.18;3.92;;;13.20;99.90;;;;;;5053261;28;20048;-46
2023/05/10 03:29:04;;;;;;;6.72;3.58;;;13.20;99.90;;;;;;5053368;28;20048;-46
2023/05/10 03:31:30;;;;;;;8.50;3.90;;;13.20;99.90;;;;;;5053253;28;20059;-45
2023/05/10 03:33:55;;;;;;;7.53;3.55;;;13.20;99.90;;;;;;5053239;28;20049;-46
2023/05/10 03:36:21;;;;;;;7.72;3.95;;;13.20;99.90;;;;;;5052348;28;20049;-46
2023/05/10 03:38:47;;;;;;;6.90;3.60;;;13.20;99.90;;;;;;5053071;28;20132;-46
2023/05/10 03:41:12;;;;;;;11.38;4.70;;;13.20;99.90;;;;;;5052321;28;20288;-47
2023/05/10 03:43:38;;;;;;;6.40;3.63;;;13.20;99.90;;;;;;5053295;28;20504;-46
2023/05/10 03:46:05;;;;;;;8.10;4.50;;;13.20;99.90;;;;;;5052246;28;20291;-46
2023/05/10 03:48:32;;;;;;;8.15;4.13;;;13.10;99.90;;;;;;5053419;28;20045;-46
2023/05/10 03:50:58;;;;;;;9.43;4.28;;;13.10;99.90;;;;;;5053096;28;20087;-46
2023/05/10 03:53:24;;;;;;;8.50;3.50;;;13.10;99.90;;;;;;5053024;28;20092;-46
2023/05/10 03:55:49;;;;;;;8.38;3.92;;;13.10;99.90;;;;;;5053157;28;20041;-46
2023/05/10 03:58:15;;;;;;;8.00;4.15;;;13.10;99.90;;;;;;5053156;28;20041;-46
2023/05/10 04:00:43;;;;;;;8.37;4.10;;;13.10;99.90;;;;;;5052239;28;20049;-46
2023/05/10 04:03:09;;;;;;;8.50;4.25;;;13.20;99.90;;;;;;5055341;28;20124;-46
2023/05/10 04:05:36;;;;;;;8.57;4.13;;;13.10;99.90;;;;;;5055701;28;20067;-47
2023/05/10 04:08:02;;;;;;;6.35;3.17;;;13.10;99.90;;;;;;5056532;28;20053;-46
2023/05/10 04:10:28;;;;;;;8.52;4.25;;;13.20;99.90;;;;;;5056731;28;20076;-45
2023/05/10 04:12:53;;;;;;;7.10;3.67;;;13.20;99.90;;;;;;5056124;28;20142;-46
2023/05/10 04:15:19;;;;;;;6.95;3.33;;;13.10;99.90;;;;;;5056751;28;20049;-46
2023/05/10 04:17:45;;;;;;;9.13;3.33;;;13.20;99.90;;;;;;5056426;28;20049;-46
2023/05/10 04:20:11;;;;;;;6.22;3.30;;;13.20;99.90;;;;;;5056368;28;20080;-45
2023/05/10 04:22:37;;;;;;;6.88;2.80;;;13.10;99.90;;;;;;5056258;28;20045;-46
2023/05/10 04:25:04;;;;;;;6.13;2.90;;;13.10;99.90;;;;;;5056459;28;20502;-46
2023/05/10 04:27:30;;;;;;;6.07;2.65;;;13.10;99.90;;;;;;5056349;28;20044;-46
2023/05/10 04:29:55;;;;;;;7.38;2.90;;;13.10;99.90;;;;;;5056279;28;20049;-46
2023/05/10 04:32:21;;;;;;;6.15;3.20;;;13.10;99.90;;;;;;5056225;28;20040;-46
2023/05/10 04:34:47;;;;;;;6.30;2.90;;;13.10;99.90;;;;;;5056069;28;20041;-46
2023/05/10 04:37:12;;;;;;;5.80;2.53;;;13.10;99.90;;;;;;5056061;28;20045;-47
2023/05/10 04:39:38;;;;;;;5.80;3.13;;;13.10;99.90;;;;;;5056115;28;20052;-47
2023/05/10 04:42:05;;;;;;;4.83;2.83;;;13.10;99.90;;;;;;5055941;28;20041;-47
2023/05/10 04:44:31;;;;;;;5.97;2.88;;;13.10;99.90;;;;;;5055214;28;20055;-46
2023/05/10 04:46:57;;;;;;;6.05;2.72;;;13.10;99.90;;;;;;5055943;28;20052;-46
2023/05/10 04:49:23;;;;;;;4.75;2.45;;;13.20;99.90;;;;;;5055741;28;20045;-45
2023/05/10 04:51:49;;;;;;;4.85;2.47;;;13.10;99.90;;;;;;5055541;28;20045;-46
2023/05/10 04:54:14;;;;;;;5.43;2.97;;;13.10;99.90;;;;;;5055703;28;20068;-46
2023/05/10 04:56:40;;;;;;;5.47;2.57;;;13.10;99.90;;;;;;5055959;28;20056;-46
2023/05/10 04:59:07;;;;;;;5.07;2.30;;;13.10;99.90;;;;;;5054527;28;20283;-46
2023/05/10 05:01:32;;;;;;;4.53;2.42;;;13.10;99.90;;;;;;5055717;28;20044;-46
2023/05/10 05:03:59;;;;;;;4.65;2.50;;;13.10;99.90;;;;;;5055656;28;20124;-46
2023/05/10 05:06:24;;;;;;;4.95;2.17;;;13.10;99.90;;;;;;5055615;28;20052;-46
2023/05/10 05:08:51;;;;;;;5.43;2.70;;;13.10;99.90;;;;;;5055832;28;20394;-46
2023/05/10 05:11:17;;;;;;;5.55;2.30;;;13.10;99.90;;;;;;5055346;28;20072;-46
2023/05/10 05:13:43;;;;;;;5.50;2.35;;;13.00;99.90;;;;;;5054441;28;20053;-46
2023/05/10 05:16:10;;;;;;;3.83;2.00;;;13.00;99.90;;;;;;5055578;28;20052;-46
2023/05/10 05:18:36;;;;;;;3.65;1.88;;;13.00;99.90;;;;;;5054497;28;20084;-46
2023/05/10 05:21:02;;;;;;;4.00;2.20;;;13.00;99.90;;;;;;5054121;28;20084;-45
2023/05/10 05:23:27;;;;;;;3.90;2.10;;;13.00;99.90;;;;;;5055616;28;20055;-47
2023/05/10 05:25:53;;;;;;;4.03;2.23;;;13.00;99.90;;;;;;5054120;28;20341;-47
2023/05/10 05:28:20;;;;;;;3.97;2.15;;;13.00;99.90;;;;;;5055233;28;20378;-47
2023/05/10 05:30:45;;;;;;;;;;;13.00;99.90;;;;;;5055582;28;20048;-46
2023/05/10 05:33:13;;;;;;;3.95;1.95;;;13.00;99.90;;;;;;5055013;28;19925;-45
2023/05/10 05:35:38;;;;;;;3.95;2.00;;;12.90;99.90;;;;;;5054696;28;20493;-46
2023/05/10 05:38:04;;;;;;;3.37;1.70;;;13.00;99.90;;;;;;5054725;28;20056;-46
2023/05/10 05:40:30;;;;;;;4.00;1.67;;;13.00;99.90;;;;;;5054997;28;20119;-46
2023/05/10 05:42:55;;;;;;;3.63;1.80;;;13.00;99.90;;;;;;5054607;28;20388;-46
2023/05/10 05:45:21;;;;;;;3.30;1.50;;;13.00;99.90;;;;;;5054863;28;20048;-46
2023/05/10 05:47:47;;;;;;;3.23;1.70;;;13.00;99.90;;;;;;5054956;28;20132;-46
2023/05/10 05:50:12;;;;;;;3.55;1.80;;;13.00;99.90;;;;;;5054443;28;20056;-46
2023/05/10 05:52:38;;;;;;;2.90;1.30;;;13.00;99.90;;;;;;5054856;28;20045;-46
2023/05/10 05:55:04;;;;;;;3.37;1.50;;;13.00;99.90;;;;;;5054460;28;20045;-47
2023/05/10 05:57:30;;;;;;;3.38;1.38;;;13.00;99.90;;;;;;5055086;28;20040;-46
2023/05/10 05:59:56;;;;;;;3.80;1.63;;;13.00;99.90;;;;;;5054678;28;20449;-45
2023/05/10 06:02:22;;;;;;;3.05;1.17;;;13.00;99.90;;;;;;5053339;28;20140;-46
2023/05/10 06:04:47;;;;;;;2.27;1.10;;;13.10;99.90;;;;;;5054277;28;20132;-46
2023/05/10 06:07:13;;;;;;;1.63;0.80;;;13.10;99.90;;;;;;5054159;28;20315;-45
2023/05/10 06:09:38;;;;;;;4.77;1.77;;;13.10;99.90;;;;;;5054357;28;20049;-47
2023/05/10 06:12:04;;;;;;;2.10;0.80;;;13.10;99.90;;;;;;5054007;28;20095;-46
2023/05/10 06:14:30;;;;;;;1.63;0.63;;;13.10;99.90;;;;;;5054250;28;20106;-46
2023/05/10 06:16:56;;;;;;;1.10;0.40;;;13.10;99.90;;;;;;5054138;28;20053;-46
2023/05/10 06:19:21;;;;;;;1.13;0.43;;;13.10;99.90;;;;;;5054098;28;20762;-46
2023/05/10 06:21:47;;;;;;;0.83;0.40;;;13.10;99.90;;;;;;5054151;28;20045;-46
2023/05/10 06:24:13;;;;;;;0.75;0.40;;;13.10;99.90;;;;;;5053185;28;20041;-46
2023/05/10 06:26:39;;;;;;;0.73;0.32;;;13.10;99.90;;;;;;5053956;28;20037;-46
2023/05/10 06:29:04;;;;;;;0.73;0.30;;;13.10;99.90;;;;;;5053700;28;20045;-46
2023/05/10 06:31:30;;;;;;;1.25;0.30;;;13.10;99.90;;;;;;5053952;28;20056;-46
2023/05/10 06:33:56;;;;;;;1.27;0.47;;;13.10;99.90;;;;;;5053646;28;20049;-46
2023/05/10 06:36:21;;;;;;;2.30;0.80;;;13.10;99.90;;;;;;5054030;28;20049;-46
2023/05/10 06:38:48;;;;;;;1.92;0.80;;;13.10;99.90;;;;;;5053801;28;20637;-46
2023/05/10 06:41:14;;;;;;;1.65;0.80;;;13.00;99.90;;;;;;5053888;28;20096;-46
2023/05/10 06:43:41;;;;;;;2.20;0.97;;;13.00;99.90;;;;;;5052582;28;20115;-46
2023/05/10 06:46:07;;;;;;;3.15;1.30;;;13.00;99.90;;;;;;5053519;28;20488;-47
2023/05/10 06:48:32;;;;;;;5.10;1.80;;;12.90;99.90;;;;;;5053643;28;20052;-47
2023/05/10 06:50:58;;;;;;;3.97;1.90;;;12.90;99.90;;;;;;5053413;28;20055;-47
2023/05/10 06:53:24;;;;;;;5.83;2.80;;;12.90;99.90;;;;;;5053977;28;20427;-47
2023/05/10 06:55:50;;;;;;;5.80;3.00;;;12.80;99.90;;;;;;5053161;28;20045;-45
2023/05/10 06:58:15;;;;;;;7.07;3.55;;;12.80;99.90;;;;;;5053595;28;20493;-46
2023/05/10 07:00:43;;;;;;;6.17;3.33;;;12.70;99.90;;;;;;5052458;28;20153;-47
2023/05/10 07:03:09;;;;;;;4.97;2.72;;;12.70;99.90;;;;;;5053499;28;20439;-47
2023/05/10 07:05:35;;;;;;;6.18;3.22;;;12.70;99.90;;;;;;5053593;28;20049;-46
2023/05/10 07:08:01;;;;;;;4.60;2.47;;;12.70;99.90;;;;;;5053531;28;20057;-47
2023/05/10 07:10:27;;;;;;;3.85;1.88;;;12.70;99.90;;;;;;5053551;28;20041;-47
2023/05/10 07:12:53;;;;;;;4.37;2.03;;;12.70;99.90;;;;;;5053428;28;20443;-46
2023/05/10 07:15:18;;;;;;;3.83;2.07;;;12.70;99.90;;;;;;5053480;28;20450;-46
2023/05/10 07:17:45;;;;;;;4.00;1.90;;;12.60;99.90;;;;;;5053194;28;20286;-47
2023/05/10 07:20:11;;;;;;;4.15;2.00;;;12.60;99.90;;;;;;5053479;28;20283;-45
2023/05/10 07:22:36;;;;;;;4.38;2.33;;;12.60;99.90;;;;;;5053653;28;20451;-47
2023/05/10 07:25:02;;;;;;;4.30;2.40;;;12.60;99.90;;;;;;5052421;28;20124;-46
2023/05/10 07:27:28;;;;;;;4.05;1.92;;;12.60;99.90;;;;;;5052674;28;20138;-48
2023/05/10 07:29:54;;;;;;;4.20;2.20;;;12.60;99.90;;;;;;5053333;28;20049;-45
2023/05/10 07:32:21;;;;;;;4.03;2.00;;;12.60;99.90;;;;;;5053138;28;20077;-47
2023/05/10 07:34:46;;;;;;;;;;;12.60;99.90;;;;;;5053343;28;20447;-48
2023/05/10 07:37:12;;;;;;;4.07;2.10;;;12.70;99.90;;;;;;5070180;28;19921;-47
2023/05/10 07:39:38;;;;;;;4.60;2.53;;;12.60;99.90;;;;;;5057324;28;20041;-47
2023/05/10 07:42:03;;;;;;;4.53;2.23;;;12.60;99.90;;;;;;5057254;28;20051;-46
2023/05/10 07:44:29;;;;;;;4.03;2.07;;;12.60;99.90;;;;;;5056980;28;20044;-47
2023/05/10 07:46:55;;;;;;;4.83;2.23;;;12.60;99.90;;;;;;5057157;28;20156;-47
2023/05/10 07:49:23;;;;;;;3.83;2.00;;;12.60;99.90;;;;;;5056734;28;20045;-47
2023/05/10 07:51:49;;;;;;;5.18;2.10;;;12.70;99.90;;;;;;5056897;28;20081;-46
2023/05/10 07:54:15;;;;;;;3.60;1.70;;;12.70;99.90;;;;;;5056947;28;20048;-46
2023/05/10 07:56:45;;;;;;;5.50;1.85;;;12.70;99.90;;;;;;5056619;28;20048;-46
2023/05/10 07:59:15;;;;;;;3.33;1.67;;;12.70;99.90;;;;;;5056817;28;20048;-46
2023/05/10 08:01:42;;;;;;;3.78;1.65;;;12.70;99.90;;;;;;5056604;28;20048;-46
2023/05/10 08:04:08;;;;;;;3.60;1.80;;;12.70;99.90;;;;;;5056736;28;20049;-46
2023/05/10 08:06:34;;;;;;;4.03;1.70;;;12.70;99.90;;;;;;5056688;28;20071;-46
2023/05/10 08:09:00;;;;;;;3.83;1.77;;;12.80;99.90;;;;;;5056627;28;20448;-46
2023/05/10 08:11:27;;;;;;;3.88;1.75;;;12.70;99.90;;;;;;5056479;28;20128;-47
2023/05/10 08:13:53;;;;;;;3.90;1.80;;;12.70;99.90;;;;;;5056463;28;20044;-44
2023/05/10 08:16:20;;;;;;;3.45;1.48;;;12.80;99.90;;;;;;5056355;28;20132;-46
2023/05/10 08:18:46;;;;;;;3.78;1.90;;;12.80;99.90;;;;;;5055277;28;20048;-46
2023/05/10 08:21:13;;;;;;;3.95;2.00;;;12.80;99.90;;;;;;5056646;28;20439;-47
2023/05/10 08:23:39;;;;;;;3.95;2.10;;;12.80;99.90;;;;;;5056440;28;20106;-46
2023/05/10 08:26:05;;;;;;;3.92;2.00;;;12.80;99.90;;;;;;5055040;28;20053;-46
2023/05/10 08:28:31;;;;;;;3.53;1.63;;;12.80;99.90;;;;;;5056165;28;20049;-45
2023/05/10 08:30:56;;;;;;;3.50;1.70;;;12.80;99.90;;;;;;5056154;28;20067;-46
2023/05/10 08:33:22;;;;;;;3.85;1.80;;;12.80;99.90;;;;;;5056798;28;20041;-45
2023/05/10 08:35:48;;;;;;;3.80;1.90;;;12.80;99.90;;;;;;5056227;28;20106;-47
2023/05/10 08:38:14;;;;;;;3.65;1.67;;;12.80;99.90;;;;;;5056112;28;20330;-45
2023/05/10 08:40:43;;;;;;;2.53;1.10;;;12.80;99.90;;;;;;5056080;28;20057;-47
2023/05/10 08:43:11;;;;;;;3.35;1.30;;;12.80;99.90;;;;;;5056140;28;20080;-45
2023/05/10 08:45:47;;;;;;;3.58;1.63;;;12.90;99.90;;;;;;5055816;28;20114;-44
2023/05/10 08:48:14;;;;;;;2.65;1.25;;;12.80;99.90;;;;;;5056088;28;20048;-46
2023/05/10 08:50:42;;;;;;;2.50;1.10;;;12.80;99.90;;;;;;5056230;28;20048;-46
2023/05/10 08:53:12;;;;;;;2.80;1.20;;;12.80;99.90;;;;;;5055710;28;20481;-46
2023/05/10 08:55:40;;;;;;;1.90;0.80;;;12.80;99.90;;;;;;5055707;28;20049;-45
2023/05/10 08:58:06;;;;;;;1.83;0.77;;;12.80;99.90;;;;;;5055442;28;20049;-46
2023/05/10 09:00:33;;;;;;;1.67;0.60;;;12.90;99.90;;;;;;5055724;28;20375;-44
2023/05/10 09:02:59;;;;;;;;;;;12.90;99.90;;;;;;5056097;28;20041;-45
2023/05/10 09:05:25;;;;;;;1.40;0.55;;;12.90;99.90;;;;;;5055596;28;20264;-45
2023/05/10 09:07:51;;;;;;;1.60;0.60;;;12.80;99.90;;;;;;5055492;28;20049;-45
2023/05/10 09:10:17;;;;;;;1.08;0.55;;;12.90;99.90;;;;;;5055451;28;20056;-46
2023/05/10 09:12:45;;;;;;;2.67;0.95;;;12.90;99.90;;;;;;5054931;28;20064;-46
2023/05/10 09:15:11;;;;;;;1.63;0.52;;;12.90;99.90;;;;;;5055598;28;20045;-47
2023/05/10 09:17:40;;;;;;;1.90;0.75;;;12.90;99.90;;;;;;5055622;28;20099;-46
2023/05/10 09:20:06;;;;;;;2.25;0.93;;;12.90;99.90;;;;;;5055362;28;20091;-45
2023/05/10 09:22:33;;;;;;;2.22;0.95;;;12.90;99.90;;;;;;5055195;28;20041;-45
2023/05/10 09:25:11;;;;;;;3.25;1.08;;;12.90;99.90;;;;;;5055009;28;20068;-46
2023/05/10 09:27:39;;;;;;;2.55;1.02;;;12.90;99.90;;;;;;5054973;28;20403;-46
2023/05/10 09:30:06;;;;;;;3.05;1.13;;;13.00;99.90;;;;;;5055282;28;20102;-46
2023/05/10 09:32:40;;;;;;;3.22;1.20;;;13.00;99.90;;;;;;5054032;28;20061;-44
2023/05/10 09:35:10;;;;;;;3.75;1.40;;;13.00;99.90;;;;;;5055040;28;20040;-46
2023/05/10 09:37:36;;;;;;;3.90;1.38;;;13.10;99.90;;;;;;5054786;28;20044;-44
2023/05/10 09:40:07;;;;;;;3.35;1.40;;;13.10;99.90;;;;;;5055200;28;20055;-44
2023/05/10 09:42:34;;;;;;;3.30;1.63;;;13.10;99.90;;;;;;5053778;28;20120;-45
2023/05/10 09:45:04;;;;;;;3.25;1.50;;;13.10;99.90;;;;;;5054972;28;20060;-47
2023/05/10 09:47:34;;;;;;;4.32;1.50;;;13.20;99.90;;;;;;5054862;28;20049;-45
2023/05/10 09:50:04;;;;;;;3.70;1.67;;;13.20;99.90;;;;;;5054524;28;20047;-45
2023/05/10 09:53:06;;;;;;;4.32;1.92;;;13.30;99.90;;;;;;5054953;28;20048;-45
2023/05/10 09:55:39;;;;;;;3.85;1.90;;;13.30;99.90;;;;;;5032508;28;20059;-45
2023/05/10 09:58:09;;;;;;;4.57;1.90;;;13.30;99.90;;;;;;5051052;28;20483;-45
2023/05/10 10:00:40;;;;;;;4.78;1.98;;;13.30;99.90;;;;;;5052763;28;20052;-43
2023/05/10 10:03:11;;;;;;;5.30;2.13;;;13.30;99.90;;;;;;5054495;28;20039;-45
2023/05/10 10:05:40;;;;;;;3.95;1.80;;;13.30;99.90;;;;;;5054950;28;20123;-44
2023/05/10 10:08:06;;;;;;;4.05;1.55;;;13.30;99.90;;;;;;5054471;28;20048;-45
2023/05/10 10:10:33;;;;;;;3.72;1.58;;;13.30;99.90;;;;;;5054260;28;20055;-45
2023/05/10 10:12:59;;;;;;;3.75;1.40;;;13.30;99.90;;;;;;5054181;28;20221;-45
2023/05/10 10:15:26;;;;;;;3.25;1.25;;;13.30;99.90;;;;;;5054091;28;20048;-45
2023/05/10 10:17:53;;;;;;;2.25;0.90;;;13.30;99.90;;;;;;5054234;28;20131;-43
2023/05/10 10:20:20;;;;;;;3.25;1.15;;;13.40;99.90;;;;;;5053209;28;20067;-48
2023/05/10 10:22:47;;;;;;;2.35;0.88;;;13.40;99.90;;;;;;5054040;28;20473;-47
2023/05/10 10:25:17;;;;;;;2.30;0.80;;;13.40;99.90;;;;;;5054172;28;20084;-46
2023/05/10 10:27:52;;;;;;;1.85;0.60;;;13.40;99.90;;;;;;5054007;28;20102;-48
2023/05/10 10:30:35;;;;;;;1.80;0.60;;;13.50;99.90;;;;;;5054046;28;20049;-48
2023/05/10 10:33:22;;;;;;;2.03;0.80;;;13.50;99.90;;;;;;5054031;28;20041;-46
2023/05/10 10:35:48;;;;;;;2.00;0.77;;;13.50;99.90;;;;;;5054163;28;20080;-45
2023/05/10 10:38:14;;;;;;;1.90;0.60;;;13.50;99.90;;;;;;5053811;28;20370;-48
2023/05/10 10:40:40;;;;;;;1.85;0.80;;;13.70;99.90;;;;;;5052935;28;20095;-47
2023/05/10 10:43:26;;;;;;;1.33;0.40;;;13.70;99.90;;;;;;5053828;28;20037;-46
2023/05/10 10:46:16;;;;;;;1.50;0.40;;;13.80;99.90;;;;;;5053839;28;20045;-48
2023/05/10 10:48:52;;;;;;;1.77;0.52;;;13.80;99.90;;;;;;5053660;28;20280;-46
2023/05/10 10:51:18;;;;;;;2.97;0.82;;;13.90;99.90;;;;;;5053644;28;20434;-46
2023/05/10 10:53:43;;;;;;;0.80;0.50;;;13.90;99.90;;;;;;5053693;28;20049;-46
2023/05/10 10:56:11;;;;;;;2.75;0.82;;;14.00;99.90;;;;;;5053732;28;20097;-47
2023/05/10 10:58:38;;;;;;;3.45;1.05;;;14.00;99.90;;;;;;5053592;28;20432;-46
2023/05/10 11:01:17;;;;;;;2.58;0.90;;;14.10;99.90;;;;;;5053454;28;20504;-47
2023/05/10 11:04:19;;;;;;;4.18;1.52;;;14.10;99.90;;;;;;5053666;28;20495;-45
2023/05/10 11:06:45;;;;;;;20.42;13.38;;;14.20;99.90;;;;;;5041954;28;20397;-44
2023/05/10 11:09:12;;;;;;;9.55;5.20;;;14.20;99.90;;;;;;5053356;28;20052;-44
2023/05/10 11:11:57;;;;;;;4.78;1.92;;;14.20;99.90;;;;;;5052356;28;20128;-47
2023/05/10 11:14:24;;;;;;;4.05;1.70;;;14.20;99.90;;;;;;5053282;28;20057;-45
2023/05/10 11:16:50;;;;;;;4.38;1.65;;;14.20;99.90;;;;;;5052454;28;20053;-46
2023/05/10 11:19:17;;;;;;;5.15;2.13;;;14.20;99.90;;;;;;5052399;28;20478;-46
2023/05/10 11:21:46;;;;;;;5.15;2.30;;;14.30;99.90;;;;;;5053155;28;20127;-46
2023/05/10 11:24:17;;;;;;;5.07;2.40;;;14.30;99.90;;;;;;5053502;28;20497;-46
2023/05/10 11:26:43;;;;;;;5.45;2.30;;;14.30;99.90;;;;;;5053374;28;20178;-46
2023/05/10 11:29:09;;;;;;;6.18;2.58;;;14.30;99.90;;;;;;5053709;28;20128;-45
2023/05/10 11:31:34;;;;;;;6.82;3.17;;;14.30;99.90;;;;;;5053510;28;20049;-45
2023/05/10 11:34:04;;;;;;;4.88;2.35;;;14.30;99.90;;;;;;5053154;28;20496;-46
2023/05/10 11:36:33;;;;;;;6.63;2.47;;;14.30;99.90;;;;;;5053024;28;20506;-47
2023/05/10 11:38:59;;;;;;;4.82;2.13;;;14.30;99.90;;;;;;5053174;28;20056;-45
2023/05/10 11:41:26;;;;;;;6.63;2.60;;;14.30;99.90;;;;;;5051960;28;20041;-45
2023/05/10 11:43:54;;;;;;;6.47;2.53;;;14.30;99.90;;;;;;5052953;28;20102;-45
2023/05/10 11:46:21;;;;;;;6.53;2.85;;;14.30;99.90;;;;;;5053080;28;20103;-46
2023/05/10 11:48:53;;;;;;;6.53;2.63;;;14.30;99.90;;;;;;5052967;28;20045;-44
2023/05/10 11:51:22;;;;;;;6.25;3.03;;;14.40;99.90;;;;;;5053195;28;20045;-45
2023/05/10 11:53:51;;;;;;;6.20;2.53;;;14.40;99.90;;;;;;5053000;28;20045;-45
2023/05/10 11:56:16;;;;;;;7.88;3.20;;;14.40;99.90;;;;;;5053122;28;20140;-44
2023/05/10 11:58:42;;;;;;;7.85;3.60;;;14.40;99.90;;;;;;5052888;28;20543;-45
2023/05/10 12:01:10;;;;;;;5.95;2.92;;;14.40;99.90;;;;;;5053103;28;20123;-45
2023/05/10 12:03:37;;;;;;;7.60;3.55;;;14.50;99.90;;;;;;5052971;28;20080;-44
2023/05/10 12:06:03;;;;;;;8.50;3.08;;;14.50;99.90;;;;;;5051744;28;20052;-46
2023/05/10 12:08:30;;;;;;;;;;;14.60;99.90;;;;;;5053291;28;20049;-45
2023/05/10 12:11:13;;;;;;;8.02;3.90;;;14.60;99.90;;;;;;5052745;28;20287;-45
2023/05/10 12:13:40;;;;;;;7.63;3.97;;;14.70;99.90;;;;;;5051430;28;20045;-46
2023/05/10 12:16:25;;;;;;;8.55;3.88;;;14.70;99.90;;;;;;5052694;28;20079;-45
2023/05/10 12:18:52;;;;;;;7.57;3.55;;;14.70;99.90;;;;;;5053211;28;20041;-45
2023/05/10 12:21:22;;;;;;;6.22;3.03;;;14.70;99.90;;;;;;5052858;28;20103;-45
2023/05/10 12:23:50;;;;;;;7.57;3.40;;;14.80;99.90;;;;;;5054436;28;20045;-46
2023/05/10 12:26:16;;;;;;;9.60;3.20;;;14.80;99.90;;;;;;5055325;28;20507;-45
2023/05/10 12:28:42;;;;;;;6.85;2.90;;;14.80;99.90;;;;;;5055237;28;20084;-45
2023/05/10 12:31:08;;;;;;;7.55;3.22;;;14.80;99.90;;;;;;5056312;28;20037;-45
2023/05/10 12:33:45;;;;;;;10.63;3.80;;;14.80;99.90;;;;;;5055932;28;20052;-46
2023/05/10 12:36:12;;;;;;;7.05;3.22;;;14.80;99.90;;;;;;5056240;28;20088;-45
2023/05/10 12:38:42;;;;;;;6.68;3.25;;;14.70;99.90;;;;;;5056108;28;20082;-45
2023/05/10 12:41:12;;;;;;;7.85;4.05;;;14.70;99.90;;;;;;5055866;28;20037;-45
2023/05/10 12:43:39;;;;;;;7.43;3.38;;;14.70;99.90;;;;;;5056178;28;20103;-44
2023/05/10 12:46:09;;;;;;;6.30;3.15;;;14.60;99.90;;;;;;5056018;28;20055;-45
2023/05/10 12:48:36;;;;;;;9.23;4.88;;;14.50;99.90;;;;;;5056081;28;20044;-45
2023/05/10 12:51:02;;;;;;;7.43;3.63;;;14.50;99.90;;;;;;5055907;28;20056;-45
2023/05/10 12:53:28;;;;;;;8.35;4.40;;;14.50;99.90;;;;;;5055607;28;20168;-45